AZU2575 SBJP-SBUL
Flight info
| Callsign | AZU2575 |
|---|---|
| Flight time | 2h 33m |
| Altitude | 36000 |
| Route | KUKES UZ59 VUSTI DCT MUBAP DCT ALETA DCT AZOIC |
| Aircraft | A320/M-SDE3FGHIRWY/LB1 |
Departure
| Time | 2026-04-25 13:03 |
|---|---|
| Airport | Presidente Castro Pinto International Airport (SBJP) |
Arrival
| Time | 2026-04-25 15:36 |
|---|---|
| Airport | Ten. Cel. Aviador César Bombonato Airport (SBUL) |
| Time | Latitude | Longitude | Altitude | Speed | Heading |
|---|---|---|---|---|---|
| 2026-04-25 12:28 | -7.14665 | -34.94835 | 221 ft | 0 kts | 314° |
| 2026-04-25 12:51 | -7.14667 | -34.94833 | 221 ft | 3 kts | 315° |
| 2026-04-25 12:51 | -7.14682 | -34.94819 | 223 ft | 3 kts | 316° |
| 2026-04-25 12:51 | -7.14694 | -34.94805 | 221 ft | 3 kts | 275° |
| 2026-04-25 12:52 | -7.14694 | -34.94798 | 222 ft | 0 kts | 224° |
| 2026-04-25 12:56 | -7.14694 | -34.94799 | 222 ft | 1 kts | 224° |
| 2026-04-25 12:56 | -7.14720 | -34.94816 | 221 ft | 8 kts | 216° |
| 2026-04-25 12:56 | -7.14768 | -34.94855 | 221 ft | 8 kts | 224° |
| 2026-04-25 12:56 | -7.14777 | -34.94898 | 221 ft | 5 kts | 287° |
| 2026-04-25 12:57 | -7.14760 | -34.94926 | 221 ft | 4 kts | 302° |
| 2026-04-25 12:57 | -7.14744 | -34.94942 | 222 ft | 2 kts | 313° |
| 2026-04-25 12:57 | -7.14736 | -34.94951 | 221 ft | 1 kts | 313° |
| 2026-04-25 12:57 | -7.14735 | -34.94953 | 221 ft | 0 kts | 313° |
| 2026-04-25 12:58 | -7.14724 | -34.94965 | 221 ft | 4 kts | 310° |
| 2026-04-25 12:58 | -7.14720 | -34.94982 | 221 ft | 2 kts | 268° |
| 2026-04-25 12:58 | -7.14722 | -34.94986 | 221 ft | 0 kts | 256° |
| 2026-04-25 12:58 | -7.14730 | -34.95003 | 223 ft | 7 kts | 240° |
| 2026-04-25 12:59 | -7.14783 | -34.95062 | 223 ft | 13 kts | 228° |
| 2026-04-25 12:59 | -7.14786 | -34.95130 | 223 ft | 10 kts | 302° |
| 2026-04-25 12:59 | -7.14742 | -34.95177 | 222 ft | 9 kts | 315° |
| 2026-04-25 12:59 | -7.14699 | -34.95219 | 222 ft | 9 kts | 314° |
| 2026-04-25 13:00 | -7.14640 | -34.95280 | 221 ft | 16 kts | 315° |
| 2026-04-25 13:00 | -7.14613 | -34.95308 | 221 ft | 18 kts | 315° |
| 2026-04-25 13:00 | -7.14429 | -34.95492 | 220 ft | 27 kts | 315° |
| 2026-04-25 13:00 | -7.14284 | -34.95635 | 222 ft | 30 kts | 316° |
| 2026-04-25 13:01 | -7.14147 | -34.95772 | 222 ft | 17 kts | 315° |
| 2026-04-25 13:01 | -7.14061 | -34.95818 | 225 ft | 11 kts | 342° |
| 2026-04-25 13:01 | -7.14055 | -34.95837 | 224 ft | 3 kts | 219° |
| 2026-04-25 13:01 | -7.14090 | -34.95823 | 224 ft | 6 kts | 137° |
| 2026-04-25 13:02 | -7.14092 | -34.95822 | 224 ft | 4 kts | 137° |
| 2026-04-25 13:02 | -7.14308 | -34.95609 | 222 ft | 80 kts | 135° |
| 2026-04-25 13:02 | -7.14853 | -34.95068 | 223 ft | 137 kts | 135° |
| 2026-04-25 13:02 | -7.15619 | -34.94292 | 436 ft | 164 kts | 135° |
| 2026-04-25 13:03 | -7.16452 | -34.93499 | 1030 ft | 168 kts | 135° |
| 2026-04-25 13:03 | -7.17333 | -34.92617 | 1291 ft | 190 kts | 132° |
| 2026-04-25 13:03 | -7.18315 | -34.91611 | 1632 ft | 211 kts | 134° |
| 2026-04-25 13:03 | -7.19396 | -34.90507 | 1978 ft | 234 kts | 136° |
| 2026-04-25 13:04 | -7.20595 | -34.89288 | 2495 ft | 253 kts | 134° |
| 2026-04-25 13:04 | -7.21829 | -34.88035 | 3285 ft | 257 kts | 134° |
| 2026-04-25 13:04 | -7.23089 | -34.86755 | 4166 ft | 258 kts | 135° |
| 2026-04-25 13:04 | -7.24358 | -34.85469 | 5003 ft | 260 kts | 135° |
| 2026-04-25 13:05 | -7.25645 | -34.84170 | 5826 ft | 263 kts | 135° |
| 2026-04-25 13:05 | -7.26954 | -34.82853 | 6615 ft | 268 kts | 135° |
| 2026-04-25 13:05 | -7.28282 | -34.81515 | 7379 ft | 272 kts | 136° |
| 2026-04-25 13:05 | -7.29634 | -34.80154 | 8127 ft | 278 kts | 136° |
| 2026-04-25 13:06 | -7.31012 | -34.78766 | 8790 ft | 284 kts | 136° |
| 2026-04-25 13:06 | -7.32419 | -34.77349 | 8998 ft | 286 kts | 136° |
| 2026-04-25 13:06 | -7.33806 | -34.75948 | 9035 ft | 287 kts | 136° |
| 2026-04-25 13:06 | -7.35214 | -34.74527 | 9042 ft | 287 kts | 136° |
| 2026-04-25 13:07 | -7.36623 | -34.73105 | 9043 ft | 287 kts | 136° |
| 2026-04-25 13:07 | -7.38033 | -34.71681 | 9043 ft | 287 kts | 136° |
| 2026-04-25 13:07 | -7.39442 | -34.70261 | 9043 ft | 287 kts | 136° |
| 2026-04-25 13:07 | -7.40852 | -34.68841 | 9043 ft | 287 kts | 136° |
| 2026-04-25 13:08 | -7.42260 | -34.67417 | 9043 ft | 287 kts | 136° |
| 2026-04-25 13:08 | -7.43666 | -34.65996 | 9043 ft | 287 kts | 136° |
| 2026-04-25 13:08 | -7.45056 | -34.64593 | 9043 ft | 287 kts | 136° |
| 2026-04-25 13:08 | -7.46463 | -34.63173 | 9043 ft | 287 kts | 137° |
| 2026-04-25 13:09 | -7.48025 | -34.61940 | 9042 ft | 285 kts | 151° |
| 2026-04-25 13:09 | -7.49841 | -34.61150 | 9094 ft | 287 kts | 166° |
| 2026-04-25 13:09 | -7.51818 | -34.60863 | 9788 ft | 288 kts | 178° |
| 2026-04-25 13:09 | -7.53847 | -34.60767 | 10278 ft | 301 kts | 178° |
| 2026-04-25 13:10 | -7.56019 | -34.60661 | 10416 ft | 324 kts | 177° |
| 2026-04-25 13:10 | -7.58347 | -34.60549 | 10556 ft | 345 kts | 177° |
| 2026-04-25 13:10 | -7.60751 | -34.60433 | 10936 ft | 355 kts | 177° |
| 2026-04-25 13:10 | -7.63232 | -34.60312 | 11509 ft | 359 kts | 177° |
| 2026-04-25 13:11 | -7.65744 | -34.60243 | 12079 ft | 363 kts | 183° |
| 2026-04-25 13:11 | -7.68245 | -34.60660 | 12645 ft | 367 kts | 196° |
| 2026-04-25 13:11 | -7.70604 | -34.61665 | 13216 ft | 371 kts | 210° |
| 2026-04-25 13:11 | -7.72678 | -34.63227 | 13760 ft | 376 kts | 223° |
| 2026-04-25 13:12 | -7.74421 | -34.65209 | 14298 ft | 379 kts | 229° |
| 2026-04-25 13:12 | -7.76131 | -34.67246 | 14819 ft | 383 kts | 229° |
| 2026-04-25 13:12 | -7.77861 | -34.69297 | 15335 ft | 386 kts | 229° |
| 2026-04-25 13:12 | -7.78427 | -34.69967 | 15496 ft | 387 kts | 229° |
| 2026-04-25 13:13 | -7.81352 | -34.73425 | 16308 ft | 392 kts | 229° |
| 2026-04-25 13:13 | -7.83131 | -34.75522 | 16782 ft | 395 kts | 229° |
| 2026-04-25 13:13 | -7.84927 | -34.77637 | 17233 ft | 398 kts | 229° |
| 2026-04-25 13:13 | -7.86735 | -34.79766 | 17691 ft | 401 kts | 229° |
| 2026-04-25 13:14 | -7.88560 | -34.81912 | 18127 ft | 404 kts | 228° |
| 2026-04-25 13:14 | -7.90433 | -34.84036 | 18567 ft | 407 kts | 227° |
| 2026-04-25 13:14 | -7.92363 | -34.86144 | 18990 ft | 410 kts | 226° |
| 2026-04-25 13:14 | -7.94325 | -34.88243 | 19410 ft | 413 kts | 225° |
| 2026-04-25 13:15 | -7.96308 | -34.90349 | 19821 ft | 415 kts | 225° |
| 2026-04-25 13:15 | -7.98276 | -34.92441 | 20209 ft | 418 kts | 225° |
| 2026-04-25 13:15 | -8.00277 | -34.94584 | 20598 ft | 421 kts | 226° |
| 2026-04-25 13:15 | -8.02284 | -34.96752 | 20976 ft | 424 kts | 226° |
| 2026-04-25 13:16 | -8.04297 | -34.98937 | 21361 ft | 427 kts | 226° |
| 2026-04-25 13:16 | -8.06320 | -35.01141 | 21716 ft | 429 kts | 227° |
| 2026-04-25 13:16 | -8.08151 | -35.03532 | 22045 ft | 433 kts | 237° |
| 2026-04-25 13:16 | -8.09559 | -35.06227 | 22382 ft | 437 kts | 246° |
| 2026-04-25 13:17 | -8.10739 | -35.09062 | 22706 ft | 440 kts | 246° |
| 2026-04-25 13:17 | -8.11916 | -35.11874 | 23029 ft | 442 kts | 246° |
| 2026-04-25 13:17 | -8.13122 | -35.14739 | 23342 ft | 445 kts | 246° |
| 2026-04-25 13:17 | -8.14335 | -35.17618 | 23642 ft | 447 kts | 246° |
| 2026-04-25 13:18 | -8.15553 | -35.20511 | 23924 ft | 450 kts | 246° |
| 2026-04-25 13:18 | -8.16784 | -35.23437 | 24106 ft | 456 kts | 246° |
| 2026-04-25 13:18 | -8.18029 | -35.26399 | 24297 ft | 460 kts | 246° |
| 2026-04-25 13:18 | -8.19281 | -35.29379 | 24562 ft | 463 kts | 246° |
| 2026-04-25 13:19 | -8.20540 | -35.32379 | 24832 ft | 465 kts | 246° |
| 2026-04-25 13:19 | -8.21805 | -35.35390 | 25105 ft | 467 kts | 246° |
| 2026-04-25 13:19 | -8.23074 | -35.38412 | 25354 ft | 469 kts | 246° |
| 2026-04-25 13:19 | -8.23487 | -35.39396 | 25449 ft | 469 kts | 246° |
| 2026-04-25 13:20 | -8.25609 | -35.44452 | 25878 ft | 472 kts | 246° |
| 2026-04-25 13:20 | -8.26888 | -35.47505 | 26132 ft | 474 kts | 246° |
| 2026-04-25 13:20 | -8.28172 | -35.50575 | 26368 ft | 476 kts | 246° |
| 2026-04-25 13:20 | -8.29462 | -35.53660 | 26604 ft | 477 kts | 246° |
| 2026-04-25 13:21 | -8.30756 | -35.56754 | 26794 ft | 479 kts | 246° |
| 2026-04-25 13:21 | -8.32056 | -35.59858 | 27004 ft | 481 kts | 246° |
| 2026-04-25 13:21 | -8.33362 | -35.62971 | 27208 ft | 482 kts | 246° |
| 2026-04-25 13:21 | -8.34670 | -35.66092 | 27416 ft | 484 kts | 246° |
| 2026-04-25 13:22 | -8.35984 | -35.69227 | 27613 ft | 485 kts | 246° |
| 2026-04-25 13:22 | -8.37281 | -35.72323 | 27805 ft | 486 kts | 246° |
| 2026-04-25 13:22 | -8.38599 | -35.75477 | 27986 ft | 488 kts | 246° |
| 2026-04-25 13:23 | -8.41238 | -35.81800 | 28400 ft | 490 kts | 246° |
| 2026-04-25 13:23 | -8.42565 | -35.84973 | 28607 ft | 491 kts | 246° |
| 2026-04-25 13:23 | -8.43891 | -35.88149 | 28799 ft | 492 kts | 246° |
| 2026-04-25 13:23 | -8.45220 | -35.91336 | 28989 ft | 493 kts | 246° |
| 2026-04-25 13:24 | -8.46554 | -35.94532 | 29171 ft | 494 kts | 246° |
| 2026-04-25 13:24 | -8.47869 | -35.97681 | 29430 ft | 493 kts | 246° |
| 2026-04-25 13:24 | -8.49198 | -36.00868 | 29694 ft | 492 kts | 246° |
| 2026-04-25 13:24 | -8.50525 | -36.04047 | 29954 ft | 491 kts | 246° |
| 2026-04-25 13:25 | -8.51854 | -36.07226 | 30194 ft | 491 kts | 245° |
| 2026-04-25 13:25 | -8.53179 | -36.10400 | 30477 ft | 489 kts | 245° |
| 2026-04-25 13:25 | -8.54493 | -36.13552 | 30827 ft | 486 kts | 245° |
| 2026-04-25 13:25 | -8.55799 | -36.16689 | 31192 ft | 482 kts | 245° |
| 2026-04-25 13:26 | -8.57090 | -36.19796 | 31555 ft | 478 kts | 245° |
| 2026-04-25 13:26 | -8.58371 | -36.22873 | 31914 ft | 473 kts | 245° |
| 2026-04-25 13:26 | -8.59645 | -36.25925 | 32286 ft | 469 kts | 246° |
| 2026-04-25 13:26 | -8.60891 | -36.28912 | 32603 ft | 466 kts | 246° |
| 2026-04-25 13:27 | -8.62147 | -36.31927 | 32906 ft | 464 kts | 247° |
| 2026-04-25 13:27 | -8.63395 | -36.34927 | 33162 ft | 463 kts | 247° |
| 2026-04-25 13:27 | -8.64639 | -36.37922 | 33377 ft | 462 kts | 248° |
| 2026-04-25 13:27 | -8.65882 | -36.40921 | 33569 ft | 463 kts | 248° |
| 2026-04-25 13:28 | -8.67128 | -36.43922 | 33712 ft | 464 kts | 248° |
| 2026-04-25 13:28 | -8.69618 | -36.49900 | 34261 ft | 459 kts | 247° |
| 2026-04-25 13:28 | -8.70437 | -36.51864 | 34415 ft | 458 kts | 247° |
| 2026-04-25 13:29 | -8.71670 | -36.54824 | 34605 ft | 457 kts | 246° |
| 2026-04-25 13:29 | -8.73302 | -36.58746 | 34789 ft | 457 kts | 246° |
| 2026-04-25 13:29 | -8.74533 | -36.61713 | 34920 ft | 458 kts | 245° |
| 2026-04-25 13:30 | -8.76999 | -36.67654 | 35168 ft | 459 kts | 245° |
| 2026-04-25 13:30 | -8.78234 | -36.70633 | 35294 ft | 460 kts | 245° |
| 2026-04-25 13:31 | -8.81530 | -36.78583 | 35630 ft | 462 kts | 246° |
| 2026-04-25 13:31 | -8.83176 | -36.82552 | 35789 ft | 463 kts | 246° |
| 2026-04-25 13:31 | -8.84418 | -36.85554 | 35946 ft | 463 kts | 247° |
| 2026-04-25 13:32 | -8.86918 | -36.91591 | 36003 ft | 469 kts | 248° |
| 2026-04-25 13:32 | -8.89026 | -36.96682 | 36004 ft | 475 kts | 248° |
| 2026-04-25 13:33 | -8.92013 | -37.03895 | 36001 ft | 480 kts | 248° |
| 2026-04-25 13:33 | -8.94176 | -37.09124 | 36000 ft | 481 kts | 248° |
| 2026-04-25 13:34 | -8.96742 | -37.15324 | 36003 ft | 481 kts | 248° |
| 2026-04-25 13:34 | -8.99324 | -37.21578 | 36003 ft | 482 kts | 248° |
| 2026-04-25 13:35 | -9.02194 | -37.27692 | 36006 ft | 483 kts | 238° |
| 2026-04-25 13:35 | -9.05896 | -37.33359 | 36006 ft | 483 kts | 237° |
| 2026-04-25 13:36 | -9.09584 | -37.38993 | 36010 ft | 483 kts | 237° |
| 2026-04-25 13:36 | -9.13287 | -37.44665 | 36012 ft | 484 kts | 237° |
| 2026-04-25 13:37 | -9.16998 | -37.50343 | 36016 ft | 484 kts | 237° |
| 2026-04-25 13:37 | -9.20710 | -37.56026 | 36019 ft | 484 kts | 237° |
| 2026-04-25 13:38 | -9.24389 | -37.61668 | 36020 ft | 484 kts | 237° |
| 2026-04-25 13:38 | -9.28098 | -37.67343 | 36062 ft | 483 kts | 238° |
| 2026-04-25 13:39 | -9.31797 | -37.73011 | 36074 ft | 482 kts | 238° |
| 2026-04-25 13:39 | -9.35485 | -37.78669 | 36078 ft | 481 kts | 238° |
| 2026-04-25 13:40 | -9.39169 | -37.84322 | 36078 ft | 480 kts | 238° |
| 2026-04-25 13:40 | -9.42818 | -37.89928 | 36077 ft | 480 kts | 238° |
| 2026-04-25 13:41 | -9.46491 | -37.95568 | 36074 ft | 479 kts | 238° |
| 2026-04-25 13:41 | -9.50156 | -38.01201 | 36073 ft | 479 kts | 238° |
| 2026-04-25 13:42 | -9.53824 | -38.06835 | 36071 ft | 479 kts | 238° |
| 2026-04-25 13:42 | -9.57456 | -38.12430 | 36066 ft | 478 kts | 238° |
| 2026-04-25 13:43 | -9.61118 | -38.18059 | 36062 ft | 478 kts | 238° |
| 2026-04-25 13:43 | -9.64773 | -38.23693 | 36064 ft | 479 kts | 238° |
| 2026-04-25 13:44 | -9.68434 | -38.29328 | 36064 ft | 479 kts | 238° |
| 2026-04-25 13:44 | -9.72103 | -38.34975 | 36062 ft | 480 kts | 238° |
| 2026-04-25 13:45 | -9.75926 | -38.40451 | 36064 ft | 481 kts | 229° |
| 2026-04-25 13:45 | -9.80746 | -38.45165 | 36057 ft | 482 kts | 224° |
| 2026-04-25 13:46 | -9.85622 | -38.49833 | 36057 ft | 482 kts | 224° |
| 2026-04-25 13:46 | -9.90461 | -38.54480 | 36054 ft | 482 kts | 224° |
| 2026-04-25 13:47 | -9.95341 | -38.59154 | 36062 ft | 483 kts | 224° |
| 2026-04-25 13:47 | -10.00228 | -38.63826 | 36066 ft | 483 kts | 224° |
| 2026-04-25 13:48 | -10.05105 | -38.68498 | 36069 ft | 482 kts | 224° |
| 2026-04-25 13:48 | -10.09974 | -38.73176 | 36078 ft | 481 kts | 224° |
| 2026-04-25 13:49 | -10.14799 | -38.77809 | 36081 ft | 480 kts | 224° |
| 2026-04-25 13:49 | -10.19648 | -38.82461 | 36083 ft | 479 kts | 224° |
| 2026-04-25 13:50 | -10.24486 | -38.87105 | 36080 ft | 478 kts | 224° |
| 2026-04-25 13:50 | -10.29311 | -38.91736 | 36076 ft | 477 kts | 224° |
| 2026-04-25 13:51 | -10.34132 | -38.96378 | 36074 ft | 477 kts | 224° |
| 2026-04-25 13:51 | -10.38912 | -39.00981 | 36074 ft | 477 kts | 224° |
| 2026-04-25 13:52 | -10.43736 | -39.05613 | 36073 ft | 477 kts | 224° |
| 2026-04-25 13:52 | -10.48551 | -39.10241 | 36072 ft | 476 kts | 224° |
| 2026-04-25 13:53 | -10.53360 | -39.14873 | 36072 ft | 476 kts | 224° |
| 2026-04-25 13:53 | -10.58134 | -39.19473 | 36071 ft | 476 kts | 224° |
| 2026-04-25 13:54 | -10.62932 | -39.24108 | 36068 ft | 476 kts | 224° |
| 2026-04-25 13:54 | -10.67736 | -39.28736 | 36069 ft | 476 kts | 224° |
| 2026-04-25 13:55 | -10.72533 | -39.33360 | 36067 ft | 475 kts | 224° |
| 2026-04-25 13:55 | -10.77299 | -39.37961 | 36073 ft | 475 kts | 224° |
| 2026-04-25 13:56 | -10.82089 | -39.42592 | 36065 ft | 475 kts | 224° |
| 2026-04-25 13:56 | -10.86885 | -39.47221 | 36064 ft | 475 kts | 224° |
| 2026-04-25 13:57 | -10.91676 | -39.51848 | 36065 ft | 475 kts | 224° |
| 2026-04-25 13:57 | -10.96432 | -39.56446 | 36069 ft | 475 kts | 224° |
| 2026-04-25 13:58 | -11.01217 | -39.61076 | 36064 ft | 475 kts | 224° |
| 2026-04-25 13:58 | -11.06003 | -39.65707 | 36063 ft | 475 kts | 224° |
| 2026-04-25 13:59 | -11.10749 | -39.70310 | 36068 ft | 474 kts | 223° |
| 2026-04-25 13:59 | -11.15529 | -39.74932 | 36071 ft | 474 kts | 223° |
| 2026-04-25 14:00 | -11.20302 | -39.79549 | 36079 ft | 472 kts | 223° |
| 2026-04-25 14:00 | -11.25051 | -39.84152 | 36087 ft | 470 kts | 223° |
| 2026-04-25 14:01 | -11.29768 | -39.88746 | 36088 ft | 468 kts | 223° |
| 2026-04-25 14:01 | -11.34435 | -39.93273 | 36087 ft | 465 kts | 223° |
| 2026-04-25 14:02 | -11.39117 | -39.97812 | 36083 ft | 464 kts | 224° |
| 2026-04-25 14:02 | -11.43784 | -40.02347 | 36074 ft | 463 kts | 224° |
| 2026-04-25 14:03 | -11.48449 | -40.06890 | 36059 ft | 464 kts | 224° |
| 2026-04-25 14:03 | -11.53100 | -40.11412 | 36035 ft | 466 kts | 224° |
| 2026-04-25 14:04 | -11.57806 | -40.15990 | 36032 ft | 468 kts | 224° |
| 2026-04-25 14:04 | -11.62526 | -40.20587 | 36034 ft | 470 kts | 224° |
| 2026-04-25 14:05 | -11.67229 | -40.25164 | 36044 ft | 471 kts | 224° |
| 2026-04-25 14:05 | -11.71970 | -40.29780 | 36046 ft | 472 kts | 224° |
| 2026-04-25 14:06 | -11.76715 | -40.34409 | 36042 ft | 472 kts | 224° |
| 2026-04-25 14:06 | -11.81462 | -40.39040 | 36051 ft | 472 kts | 224° |
| 2026-04-25 14:07 | -11.86186 | -40.43647 | 36056 ft | 473 kts | 224° |
| 2026-04-25 14:07 | -11.90930 | -40.48289 | 36063 ft | 473 kts | 224° |
| 2026-04-25 14:08 | -11.95682 | -40.52933 | 36060 ft | 473 kts | 224° |
| 2026-04-25 14:08 | -12.00436 | -40.57568 | 36172 ft | 474 kts | 225° |
| 2026-04-25 14:09 | -12.05201 | -40.62231 | 36198 ft | 473 kts | 225° |
| 2026-04-25 14:09 | -12.09900 | -40.66832 | 36202 ft | 469 kts | 224° |
| 2026-04-25 14:10 | -12.14594 | -40.71426 | 36200 ft | 466 kts | 224° |
| 2026-04-25 14:10 | -12.19262 | -40.75985 | 36196 ft | 463 kts | 223° |
| 2026-04-25 14:11 | -12.23902 | -40.80530 | 36183 ft | 461 kts | 223° |
| 2026-04-25 14:11 | -12.28507 | -40.85050 | 36165 ft | 463 kts | 223° |
| 2026-04-25 14:12 | -12.33157 | -40.89615 | 36134 ft | 465 kts | 223° |
| 2026-04-25 14:12 | -12.37846 | -40.94210 | 36127 ft | 468 kts | 223° |
| 2026-04-25 14:13 | -12.42566 | -40.98845 | 36132 ft | 472 kts | 223° |
| 2026-04-25 14:13 | -12.47279 | -41.03484 | 36145 ft | 475 kts | 223° |
| 2026-04-25 14:14 | -12.52048 | -41.08172 | 36147 ft | 476 kts | 223° |
| 2026-04-25 14:14 | -12.56822 | -41.12868 | 36153 ft | 476 kts | 223° |
| 2026-04-25 14:15 | -12.61609 | -41.17567 | 36162 ft | 477 kts | 223° |
| 2026-04-25 14:15 | -12.66359 | -41.22241 | 36168 ft | 477 kts | 223° |
| 2026-04-25 14:16 | -12.71139 | -41.26954 | 36170 ft | 477 kts | 223° |
| 2026-04-25 14:16 | -12.75916 | -41.31669 | 36173 ft | 477 kts | 223° |
| 2026-04-25 14:17 | -12.80700 | -41.36380 | 36171 ft | 477 kts | 223° |
| 2026-04-25 14:17 | -12.85451 | -41.41068 | 36160 ft | 478 kts | 223° |
| 2026-04-25 14:18 | -12.90244 | -41.45804 | 36152 ft | 479 kts | 223° |
| 2026-04-25 14:18 | -12.95055 | -41.50552 | 36150 ft | 481 kts | 222° |
| 2026-04-25 14:19 | -12.99875 | -41.55316 | 36162 ft | 481 kts | 222° |
| 2026-04-25 14:19 | -13.04663 | -41.60050 | 36168 ft | 482 kts | 222° |
| 2026-04-25 14:20 | -13.09485 | -41.64821 | 36169 ft | 482 kts | 222° |
| 2026-04-25 14:20 | -13.14310 | -41.69595 | 36173 ft | 482 kts | 222° |
| 2026-04-25 14:21 | -13.19134 | -41.74379 | 36180 ft | 482 kts | 222° |
| 2026-04-25 14:21 | -13.23925 | -41.79125 | 36181 ft | 482 kts | 222° |
| 2026-04-25 14:22 | -13.28752 | -41.83900 | 36177 ft | 482 kts | 222° |
| 2026-04-25 14:22 | -13.33575 | -41.88691 | 36170 ft | 483 kts | 223° |
| 2026-04-25 14:23 | -13.38398 | -41.93494 | 36170 ft | 483 kts | 222° |
| 2026-04-25 14:23 | -13.43203 | -41.98267 | 36181 ft | 484 kts | 222° |
| 2026-04-25 14:24 | -13.48037 | -42.03075 | 36182 ft | 484 kts | 222° |
| 2026-04-25 14:24 | -13.52864 | -42.07883 | 36189 ft | 483 kts | 222° |
| 2026-04-25 14:25 | -13.57696 | -42.12687 | 36192 ft | 483 kts | 222° |
| 2026-04-25 14:25 | -13.62486 | -42.17448 | 36195 ft | 482 kts | 222° |
| 2026-04-25 14:26 | -13.67162 | -42.22375 | 36187 ft | 482 kts | 226° |
| 2026-04-25 14:26 | -13.71650 | -42.27496 | 36187 ft | 482 kts | 227° |
| 2026-04-25 14:27 | -13.76124 | -42.32629 | 36183 ft | 482 kts | 226° |
| 2026-04-25 14:27 | -13.80629 | -42.37679 | 36183 ft | 482 kts | 225° |
| 2026-04-25 14:28 | -13.85189 | -42.42740 | 36184 ft | 482 kts | 225° |
| 2026-04-25 14:28 | -13.89740 | -42.47808 | 36192 ft | 482 kts | 226° |
| 2026-04-25 14:29 | -13.94270 | -42.52887 | 36192 ft | 481 kts | 226° |
| 2026-04-25 14:29 | -13.98759 | -42.57932 | 36188 ft | 481 kts | 226° |
| 2026-04-25 14:30 | -14.03283 | -42.62999 | 36194 ft | 480 kts | 226° |
| 2026-04-25 14:30 | -14.10060 | -42.70593 | 36190 ft | 480 kts | 226° |
| 2026-04-25 14:31 | -14.14568 | -42.75655 | 36195 ft | 479 kts | 226° |
| 2026-04-25 14:31 | -14.19038 | -42.80682 | 36191 ft | 478 kts | 226° |
| 2026-04-25 14:32 | -14.23531 | -42.85732 | 36188 ft | 478 kts | 226° |
| 2026-04-25 14:32 | -14.28024 | -42.90783 | 36185 ft | 477 kts | 226° |
| 2026-04-25 14:33 | -14.32511 | -42.95830 | 36184 ft | 477 kts | 226° |
| 2026-04-25 14:33 | -14.36959 | -43.00846 | 36182 ft | 478 kts | 226° |
| 2026-04-25 14:34 | -14.41448 | -43.05909 | 36173 ft | 478 kts | 226° |
| 2026-04-25 14:34 | -14.45946 | -43.10972 | 36181 ft | 479 kts | 226° |
| 2026-04-25 14:35 | -14.50440 | -43.16037 | 36185 ft | 478 kts | 226° |
| 2026-04-25 14:35 | -14.54924 | -43.21099 | 36189 ft | 478 kts | 226° |
| 2026-04-25 14:36 | -14.59369 | -43.26131 | 36186 ft | 477 kts | 226° |
| 2026-04-25 14:36 | -14.63843 | -43.31190 | 36191 ft | 477 kts | 226° |
| 2026-04-25 14:37 | -14.68317 | -43.36248 | 36188 ft | 477 kts | 226° |
| 2026-04-25 14:37 | -14.72787 | -43.41301 | 36188 ft | 476 kts | 226° |
| 2026-04-25 14:38 | -14.77218 | -43.46332 | 36185 ft | 476 kts | 226° |
| 2026-04-25 14:38 | -14.81675 | -43.51397 | 36180 ft | 477 kts | 226° |
| 2026-04-25 14:39 | -14.86142 | -43.56463 | 36183 ft | 477 kts | 226° |
| 2026-04-25 14:39 | -14.90612 | -43.61527 | 36179 ft | 477 kts | 226° |
| 2026-04-25 14:40 | -14.95057 | -43.66561 | 36180 ft | 477 kts | 226° |
| 2026-04-25 14:40 | -14.99521 | -43.71633 | 36179 ft | 477 kts | 226° |
| 2026-04-25 14:41 | -15.03987 | -43.76709 | 36180 ft | 477 kts | 226° |
| 2026-04-25 14:41 | -15.08450 | -43.81791 | 36182 ft | 477 kts | 226° |
| 2026-04-25 14:42 | -15.12153 | -43.86020 | 36180 ft | 477 kts | 226° |
| 2026-04-25 14:42 | -15.17337 | -43.91926 | 36179 ft | 477 kts | 226° |
| 2026-04-25 14:43 | -15.21799 | -43.97009 | 36180 ft | 477 kts | 226° |
| 2026-04-25 14:43 | -15.26251 | -44.02097 | 36179 ft | 477 kts | 226° |
| 2026-04-25 14:44 | -15.30679 | -44.07153 | 36177 ft | 477 kts | 226° |
| 2026-04-25 14:44 | -15.35130 | -44.12242 | 36176 ft | 477 kts | 226° |
| 2026-04-25 14:45 | -15.39581 | -44.17333 | 36177 ft | 477 kts | 226° |
| 2026-04-25 14:45 | -15.44029 | -44.22435 | 36177 ft | 477 kts | 227° |
| 2026-04-25 14:46 | -15.48373 | -44.27573 | 36179 ft | 477 kts | 228° |
| 2026-04-25 14:46 | -15.52709 | -44.32782 | 36179 ft | 477 kts | 228° |
| 2026-04-25 14:47 | -15.56321 | -44.37110 | 36182 ft | 478 kts | 227° |
| 2026-04-25 14:47 | -15.61417 | -44.43184 | 36184 ft | 478 kts | 227° |
| 2026-04-25 14:48 | -15.65777 | -44.48381 | 36181 ft | 477 kts | 227° |
| 2026-04-25 14:48 | -15.70105 | -44.53544 | 36186 ft | 477 kts | 227° |
| 2026-04-25 14:49 | -15.74455 | -44.58744 | 36184 ft | 477 kts | 227° |
| 2026-04-25 14:49 | -15.78801 | -44.63944 | 36183 ft | 477 kts | 227° |
| 2026-04-25 14:50 | -15.83148 | -44.69143 | 36181 ft | 477 kts | 227° |
| 2026-04-25 14:50 | -15.87464 | -44.74309 | 36181 ft | 477 kts | 227° |
| 2026-04-25 14:51 | -15.91808 | -44.79511 | 36182 ft | 476 kts | 227° |
| 2026-04-25 14:51 | -15.96150 | -44.84710 | 36176 ft | 477 kts | 227° |
| 2026-04-25 14:52 | -16.00492 | -44.89916 | 36181 ft | 477 kts | 227° |
| 2026-04-25 14:52 | -16.04099 | -44.94250 | 36182 ft | 477 kts | 227° |
| 2026-04-25 14:53 | -16.09140 | -45.00303 | 36176 ft | 476 kts | 227° |
| 2026-04-25 14:53 | -16.13472 | -45.05512 | 36175 ft | 476 kts | 227° |
| 2026-04-25 14:54 | -16.17795 | -45.10728 | 36174 ft | 476 kts | 228° |
| 2026-04-25 14:54 | -16.22119 | -45.15936 | 36174 ft | 476 kts | 227° |
| 2026-04-25 14:55 | -16.26419 | -45.21106 | 36170 ft | 476 kts | 227° |
| 2026-04-25 14:55 | -16.30748 | -45.26321 | 36171 ft | 476 kts | 227° |
| 2026-04-25 14:56 | -16.35070 | -45.31545 | 36173 ft | 476 kts | 228° |
| 2026-04-25 14:56 | -16.39394 | -45.36770 | 36175 ft | 476 kts | 227° |
| 2026-04-25 14:57 | -16.43725 | -45.42001 | 36175 ft | 477 kts | 227° |
| 2026-04-25 14:57 | -16.48023 | -45.47197 | 36176 ft | 477 kts | 228° |
| 2026-04-25 14:58 | -16.52348 | -45.52435 | 36176 ft | 477 kts | 228° |
| 2026-04-25 14:58 | -16.56673 | -45.57683 | 36179 ft | 477 kts | 228° |
| 2026-04-25 14:59 | -16.60999 | -45.62925 | 36176 ft | 477 kts | 228° |
| 2026-04-25 14:59 | -16.65302 | -45.68138 | 36179 ft | 478 kts | 228° |
| 2026-04-25 15:00 | -16.69638 | -45.73398 | 36177 ft | 478 kts | 228° |
| 2026-04-25 15:00 | -16.73961 | -45.78663 | 36181 ft | 478 kts | 228° |
| 2026-04-25 15:01 | -16.78288 | -45.83934 | 36179 ft | 478 kts | 228° |
| 2026-04-25 15:01 | -16.82596 | -45.89162 | 36183 ft | 478 kts | 228° |
| 2026-04-25 15:02 | -16.86930 | -45.94426 | 36181 ft | 478 kts | 228° |
| 2026-04-25 15:02 | -16.91250 | -45.99695 | 36183 ft | 477 kts | 229° |
| 2026-04-25 15:03 | -16.95560 | -46.04967 | 36175 ft | 477 kts | 229° |
| 2026-04-25 15:03 | -16.99845 | -46.10204 | 36180 ft | 477 kts | 228° |
| 2026-04-25 15:04 | -17.04151 | -46.15470 | 36177 ft | 477 kts | 228° |
| 2026-04-25 15:04 | -17.08470 | -46.20730 | 36178 ft | 477 kts | 228° |
| 2026-04-25 15:05 | -17.12781 | -46.25993 | 36178 ft | 477 kts | 229° |
| 2026-04-25 15:06 | -17.19207 | -46.33875 | 36179 ft | 477 kts | 229° |
| 2026-04-25 15:06 | -17.23505 | -46.39151 | 36178 ft | 477 kts | 229° |
| 2026-04-25 15:07 | -17.27807 | -46.44427 | 36176 ft | 476 kts | 229° |
| 2026-04-25 15:07 | -17.32109 | -46.49703 | 36176 ft | 476 kts | 229° |
| 2026-04-25 15:08 | -17.36382 | -46.54946 | 36176 ft | 477 kts | 229° |
| 2026-04-25 15:08 | -17.40670 | -46.60228 | 36203 ft | 475 kts | 229° |
| 2026-04-25 15:09 | -17.44922 | -46.65461 | 36182 ft | 462 kts | 229° |
| 2026-04-25 15:09 | -17.51005 | -46.72953 | 36196 ft | 448 kts | 229° |
| 2026-04-25 15:10 | -17.55034 | -46.77916 | 36036 ft | 448 kts | 229° |
| 2026-04-25 15:10 | -17.59052 | -46.82869 | 35537 ft | 445 kts | 229° |
| 2026-04-25 15:11 | -17.61054 | -46.85340 | 35286 ft | 443 kts | 229° |
| 2026-04-25 15:11 | -17.63043 | -46.87797 | 35036 ft | 441 kts | 229° |
| 2026-04-25 15:11 | -17.65021 | -46.90246 | 34784 ft | 439 kts | 229° |
| 2026-04-25 15:12 | -17.68954 | -46.95117 | 34281 ft | 436 kts | 229° |
| 2026-04-25 15:12 | -17.70883 | -46.97507 | 34028 ft | 435 kts | 229° |
| 2026-04-25 15:12 | -17.72832 | -46.99919 | 33786 ft | 433 kts | 229° |
| 2026-04-25 15:12 | -17.73491 | -47.00733 | 33689 ft | 431 kts | 229° |
| 2026-04-25 15:13 | -17.76702 | -47.04697 | 32861 ft | 427 kts | 229° |
| 2026-04-25 15:13 | -17.80524 | -47.09431 | 31860 ft | 423 kts | 229° |
| 2026-04-25 15:13 | -17.82419 | -47.11778 | 31349 ft | 420 kts | 229° |
| 2026-04-25 15:14 | -17.84278 | -47.14083 | 30861 ft | 418 kts | 229° |
| 2026-04-25 15:14 | -17.86148 | -47.16402 | 30388 ft | 415 kts | 229° |
| 2026-04-25 15:14 | -17.88007 | -47.18706 | 29917 ft | 412 kts | 229° |
| 2026-04-25 15:14 | -17.89854 | -47.20994 | 29454 ft | 409 kts | 229° |
| 2026-04-25 15:15 | -17.91681 | -47.23265 | 29008 ft | 406 kts | 229° |
| 2026-04-25 15:15 | -17.93493 | -47.25522 | 28560 ft | 402 kts | 229° |
| 2026-04-25 15:15 | -17.95289 | -47.27757 | 28115 ft | 399 kts | 229° |
| 2026-04-25 15:15 | -17.97073 | -47.29975 | 27676 ft | 396 kts | 229° |
| 2026-04-25 15:16 | -17.98841 | -47.32175 | 27236 ft | 393 kts | 229° |
| 2026-04-25 15:16 | -18.00574 | -47.34336 | 26782 ft | 390 kts | 229° |
| 2026-04-25 15:16 | -18.04055 | -47.38674 | 25859 ft | 387 kts | 229° |
| 2026-04-25 15:17 | -18.07509 | -47.42974 | 24904 ft | 383 kts | 230° |
| 2026-04-25 15:17 | -18.09226 | -47.45109 | 24428 ft | 381 kts | 230° |
| 2026-04-25 15:17 | -18.10933 | -47.47235 | 23935 ft | 380 kts | 230° |
| 2026-04-25 15:18 | -18.12633 | -47.49356 | 23462 ft | 379 kts | 230° |
| 2026-04-25 15:18 | -18.15997 | -47.53555 | 22505 ft | 377 kts | 230° |
| 2026-04-25 15:18 | -18.17683 | -47.55658 | 22036 ft | 376 kts | 230° |
| 2026-04-25 15:19 | -18.19368 | -47.57761 | 21564 ft | 375 kts | 230° |
| 2026-04-25 15:19 | -18.19934 | -47.58468 | 21405 ft | 375 kts | 230° |
| 2026-04-25 15:19 | -18.22718 | -47.61943 | 20638 ft | 373 kts | 229° |
| 2026-04-25 15:19 | -18.24385 | -47.64028 | 20190 ft | 372 kts | 229° |
| 2026-04-25 15:20 | -18.26045 | -47.66106 | 19726 ft | 370 kts | 229° |
| 2026-04-25 15:20 | -18.27700 | -47.68174 | 19273 ft | 369 kts | 229° |
| 2026-04-25 15:20 | -18.29326 | -47.70206 | 18850 ft | 367 kts | 229° |
| 2026-04-25 15:20 | -18.31039 | -47.72168 | 18411 ft | 364 kts | 221° |
| 2026-04-25 15:21 | -18.32926 | -47.73919 | 18040 ft | 360 kts | 221° |
| 2026-04-25 15:21 | -18.34806 | -47.75657 | 17649 ft | 357 kts | 221° |
| 2026-04-25 15:21 | -18.36668 | -47.77381 | 17166 ft | 357 kts | 221° |
| 2026-04-25 15:21 | -18.38515 | -47.79094 | 16898 ft | 351 kts | 221° |
| 2026-04-25 15:22 | -18.40345 | -47.80790 | 16448 ft | 350 kts | 221° |
| 2026-04-25 15:22 | -18.42158 | -47.82470 | 16043 ft | 348 kts | 222° |
| 2026-04-25 15:22 | -18.43976 | -47.84158 | 15629 ft | 346 kts | 222° |
| 2026-04-25 15:22 | -18.45752 | -47.85812 | 15216 ft | 345 kts | 222° |
| 2026-04-25 15:23 | -18.47545 | -47.87483 | 14802 ft | 343 kts | 222° |
| 2026-04-25 15:23 | -18.49332 | -47.89147 | 14405 ft | 342 kts | 222° |
| 2026-04-25 15:23 | -18.51108 | -47.90799 | 14029 ft | 340 kts | 222° |
| 2026-04-25 15:23 | -18.52878 | -47.92443 | 13646 ft | 338 kts | 222° |
| 2026-04-25 15:24 | -18.54641 | -47.94078 | 13278 ft | 337 kts | 222° |
| 2026-04-25 15:24 | -18.56392 | -47.95704 | 12890 ft | 335 kts | 223° |
| 2026-04-25 15:24 | -18.58136 | -47.97324 | 12503 ft | 333 kts | 222° |
| 2026-04-25 15:24 | -18.58698 | -47.97847 | 12378 ft | 333 kts | 223° |
| 2026-04-25 15:25 | -18.61569 | -48.00525 | 11786 ft | 330 kts | 223° |
| 2026-04-25 15:25 | -18.63286 | -48.02125 | 11439 ft | 329 kts | 223° |
| 2026-04-25 15:25 | -18.64996 | -48.03718 | 11040 ft | 328 kts | 223° |
| 2026-04-25 15:25 | -18.66696 | -48.05306 | 10646 ft | 326 kts | 223° |
| 2026-04-25 15:26 | -18.68390 | -48.06887 | 10289 ft | 324 kts | 223° |
| 2026-04-25 15:26 | -18.70072 | -48.08453 | 10017 ft | 319 kts | 223° |
| 2026-04-25 15:26 | -18.71708 | -48.09977 | 9861 ft | 309 kts | 223° |
| 2026-04-25 15:26 | -18.73287 | -48.11449 | 9608 ft | 305 kts | 223° |
| 2026-04-25 15:27 | -18.74867 | -48.12925 | 9327 ft | 301 kts | 223° |
| 2026-04-25 15:27 | -18.76426 | -48.14382 | 9059 ft | 298 kts | 223° |
| 2026-04-25 15:27 | -18.79491 | -48.17237 | 8464 ft | 290 kts | 222° |
| 2026-04-25 15:28 | -18.81015 | -48.18661 | 7822 ft | 300 kts | 222° |
| 2026-04-25 15:28 | -18.82616 | -48.20159 | 7009 ft | 315 kts | 221° |
| 2026-04-25 15:28 | -18.84284 | -48.21719 | 6397 ft | 321 kts | 222° |
| 2026-04-25 15:28 | -18.85922 | -48.23250 | 6096 ft | 315 kts | 221° |
| 2026-04-25 15:29 | -18.87527 | -48.24752 | 5995 ft | 301 kts | 221° |
| 2026-04-25 15:29 | -18.89052 | -48.26179 | 6002 ft | 285 kts | 221° |
| 2026-04-25 15:29 | -18.90497 | -48.27532 | 6006 ft | 270 kts | 221° |
| 2026-04-25 15:29 | -18.91863 | -48.28812 | 6007 ft | 256 kts | 220° |
| 2026-04-25 15:30 | -18.93160 | -48.30028 | 6004 ft | 244 kts | 220° |
| 2026-04-25 15:30 | -18.94431 | -48.31220 | 6012 ft | 244 kts | 221° |
| 2026-04-25 15:30 | -18.95704 | -48.32410 | 6005 ft | 244 kts | 221° |
| 2026-04-25 15:30 | -18.96980 | -48.33604 | 6005 ft | 246 kts | 221° |
| 2026-04-25 15:31 | -18.98243 | -48.34788 | 6003 ft | 246 kts | 221° |
| 2026-04-25 15:31 | -18.99531 | -48.35978 | 5995 ft | 243 kts | 217° |
| 2026-04-25 15:31 | -19.01035 | -48.36664 | 5863 ft | 235 kts | 185° |
| 2026-04-25 15:31 | -19.02606 | -48.36419 | 5733 ft | 228 kts | 153° |
| 2026-04-25 15:32 | -19.03805 | -48.35387 | 5607 ft | 222 kts | 123° |
| 2026-04-25 15:32 | -19.04348 | -48.33890 | 5481 ft | 219 kts | 93° |
| 2026-04-25 15:32 | -19.04424 | -48.32287 | 5340 ft | 216 kts | 91° |
| 2026-04-25 15:33 | -19.03420 | -48.29433 | 5115 ft | 216 kts | 41° |
| 2026-04-25 15:33 | -19.02137 | -48.28638 | 4972 ft | 213 kts | 22° |
| 2026-04-25 15:33 | -19.00776 | -48.28046 | 4851 ft | 211 kts | 22° |
| 2026-04-25 15:33 | -18.99437 | -48.27459 | 4752 ft | 204 kts | 22° |
| 2026-04-25 15:34 | -18.98146 | -48.26892 | 4696 ft | 199 kts | 22° |
| 2026-04-25 15:34 | -18.96902 | -48.26345 | 4633 ft | 188 kts | 22° |
| 2026-04-25 15:34 | -18.95727 | -48.25828 | 4448 ft | 178 kts | 23° |
| 2026-04-25 15:34 | -18.95359 | -48.25667 | 4388 ft | 175 kts | 22° |
| 2026-04-25 15:35 | -18.92605 | -48.24457 | 3836 ft | 152 kts | 23° |
| 2026-04-25 15:35 | -18.91635 | -48.24031 | 3638 ft | 150 kts | 24° |
| 2026-04-25 15:35 | -18.90682 | -48.23612 | 3449 ft | 147 kts | 24° |
| 2026-04-25 15:36 | -18.88795 | -48.22780 | 3105 ft | 141 kts | 23° |
| 2026-04-25 15:36 | -18.88143 | -48.22498 | 3101 ft | 58 kts | 22° |
| 2026-04-25 15:36 | -18.87817 | -48.22355 | 3103 ft | 40 kts | 22° |
| 2026-04-25 15:37 | -18.87640 | -48.22278 | 3104 ft | 19 kts | 23° |
| 2026-04-25 15:37 | -18.87548 | -48.22213 | 3104 ft | 12 kts | 41° |
| 2026-04-25 15:37 | -18.87523 | -48.22222 | 3104 ft | 2 kts | 244° |
| 2026-04-25 15:37 | -18.87533 | -48.22229 | 3103 ft | 3 kts | 211° |
| 2026-04-25 15:38 | -18.87593 | -48.22257 | 3104 ft | 12 kts | 204° |
| 2026-04-25 15:38 | -18.87660 | -48.22288 | 3104 ft | 9 kts | 200° |
| 2026-04-25 15:38 | -18.87748 | -48.22325 | 3104 ft | 21 kts | 202° |
| 2026-04-25 15:38 | -18.87897 | -48.22390 | 3102 ft | 24 kts | 202° |
| 2026-04-25 15:39 | -18.88053 | -48.22460 | 3102 ft | 25 kts | 201° |
| 2026-04-25 15:39 | -18.88213 | -48.22528 | 3101 ft | 25 kts | 202° |
| 2026-04-25 15:39 | -18.88375 | -48.22599 | 3103 ft | 25 kts | 202° |
| 2026-04-25 15:39 | -18.88537 | -48.22670 | 3103 ft | 26 kts | 204° |
| 2026-04-25 15:40 | -18.88690 | -48.22737 | 3104 ft | 16 kts | 205° |
| 2026-04-25 15:40 | -18.88716 | -48.22750 | 3104 ft | 11 kts | 205° |
| 2026-04-25 15:40 | -18.88783 | -48.22838 | 3104 ft | 8 kts | 245° |
| 2026-04-25 15:40 | -18.88802 | -48.22882 | 3104 ft | 5 kts | 246° |
| 2026-04-25 15:41 | -18.88818 | -48.22909 | 3104 ft | 4 kts | 227° |
| 2026-04-25 15:41 | -18.88850 | -48.22930 | 3104 ft | 9 kts | 205° |
| 2026-04-25 15:41 | -18.88915 | -48.22958 | 3104 ft | 11 kts | 201° |
| 2026-04-25 15:41 | -18.88976 | -48.22984 | 3104 ft | 6 kts | 206° |
| 2026-04-25 15:42 | -18.88984 | -48.23011 | 3104 ft | 3 kts | 277° |
| 2026-04-25 15:42 | -18.88980 | -48.23026 | 3104 ft | 2 kts | 286° |
| 2026-04-25 15:42 | -18.88975 | -48.23039 | 3104 ft | 2 kts | 292° |
| 2026-04-25 15:42 | -18.88975 | -48.23041 | 3105 ft | 0 kts | 292° |